Time,TemperatureF,DewpointF,PressureIn,WindDirection,WindDirectionDegrees,WindSpeedMPH,WindSpeedGustMPH,Humidity,HourlyPrecipIn,Conditions,Clouds,dailyrainin,SoftwareType,DateUTC
2013-12-07 00:06:00,48.7,44.4,29.80,North,0,0.0,-999.0,85,0.00,,,0.00,open2300 v1.10,2013-12-07 08:06:00,
2013-12-07 00:21:00,48.6,44.5,29.80,North,0,0.0,-999.0,86,0.00,,,0.00,open2300 v1.10,2013-12-07 08:21:00,
2013-12-07 00:36:00,48.6,44.5,29.80,North,0,0.0,-999.0,86,0.00,,,0.00,open2300 v1.10,2013-12-07 08:36:00,
2013-12-07 00:51:00,48.4,44.0,29.80,North,0,0.0,-999.0,85,0.00,,,0.00,open2300 v1.10,2013-12-07 08:51:00,
2013-12-07 01:06:00,48.4,43.7,29.80,North,0,0.0,-999.0,84,0.00,,,0.00,open2300 v1.10,2013-12-07 09:06:00,
2013-12-07 01:21:00,48.4,43.1,29.81,North,0,0.0,-999.0,82,0.00,,,0.00,open2300 v1.10,2013-12-07 09:21:00,
2013-12-07 01:36:00,48.6,42.6,29.81,North,0,0.0,-999.0,80,0.00,,,0.00,open2300 v1.10,2013-12-07 09:36:00,
2013-12-07 01:51:00,48.4,41.4,29.81,North,0,0.0,-999.0,77,0.00,,,0.00,open2300 v1.10,2013-12-07 09:51:00,
2013-12-07 02:06:00,48.0,40.4,29.82,North,0,0.0,-999.0,75,0.00,,,0.00,open2300 v1.10,2013-12-07 10:06:00,
2013-12-07 02:21:00,47.7,39.0,29.82,North,0,0.0,-999.0,72,0.00,,,0.00,open2300 v1.10,2013-12-07 10:21:00,
2013-12-07 02:36:00,47.5,38.5,29.82,North,0,0.0,-999.0,71,0.00,,,0.00,open2300 v1.10,2013-12-07 10:36:00,
2013-12-07 02:51:00,47.1,37.5,29.83,North,0,0.0,-999.0,69,0.00,,,0.00,open2300 v1.10,2013-12-07 10:51:00,
2013-12-07 03:06:00,46.9,37.3,29.84,North,0,0.0,-999.0,69,0.00,,,0.00,open2300 v1.10,2013-12-07 11:06:00,
2013-12-07 03:21:00,46.6,37.0,29.84,North,0,0.0,-999.0,69,0.00,,,0.00,open2300 v1.10,2013-12-07 11:21:00,
2013-12-07 03:36:00,46.6,36.6,29.85,North,0,0.0,-999.0,68,0.00,,,0.00,open2300 v1.10,2013-12-07 11:36:00,
2013-12-07 03:51:00,46.2,35.8,29.86,North,0,0.0,-999.0,67,0.00,,,0.00,open2300 v1.10,2013-12-07 11:51:00,
2013-12-07 04:06:00,46.0,36.1,29.86,North,0,0.0,-999.0,68,0.00,,,0.00,open2300 v1.10,2013-12-07 12:06:00,
2013-12-07 04:21:00,45.7,34.9,29.86,North,0,0.0,-999.0,66,0.00,,,0.00,open2300 v1.10,2013-12-07 12:21:00,
2013-12-07 04:36:00,45.5,34.4,29.86,North,0,0.0,-999.0,65,0.00,,,0.00,open2300 v1.10,2013-12-07 12:36:00,
2013-12-07 04:51:00,45.3,33.8,29.86,North,0,0.0,-999.0,64,0.00,,,0.00,open2300 v1.10,2013-12-07 12:51:00,
2013-12-07 05:06:00,45.1,31.7,29.87,North,0,0.0,-999.0,59,0.00,,,0.00,open2300 v1.10,2013-12-07 13:06:00,
2013-12-07 05:21:00,45.0,31.1,29.87,North,0,0.0,-999.0,58,0.00,,,0.00,open2300 v1.10,2013-12-07 13:21:00,
2013-12-07 05:36:00,45.0,31.1,29.88,North,0,0.0,-999.0,58,0.00,,,0.00,open2300 v1.10,2013-12-07 13:36:00,
2013-12-07 05:51:00,44.8,30.9,29.89,North,0,0.0,-999.0,58,0.00,,,0.00,open2300 v1.10,2013-12-07 13:51:00,
2013-12-07 06:06:00,44.6,31.6,29.90,North,0,0.0,-999.0,60,0.00,,,0.00,open2300 v1.10,2013-12-07 14:06:00,
2013-12-07 06:21:00,44.4,31.5,29.89,North,0,0.0,-999.0,60,0.00,,,0.00,open2300 v1.10,2013-12-07 14:21:00,
2013-12-07 06:36:00,44.4,31.5,29.90,North,0,0.0,-999.0,60,0.00,,,0.00,open2300 v1.10,2013-12-07 14:36:00,
2013-12-07 06:51:00,44.4,31.5,29.91,North,0,0.0,-999.0,60,0.00,,,0.00,open2300 v1.10,2013-12-07 14:51:00,
2013-12-07 07:06:00,44.2,30.8,29.90,North,0,0.0,-999.0,59,0.00,,,0.00,open2300 v1.10,2013-12-07 15:06:00,
2013-12-07 07:21:00,44.1,30.2,29.91,North,0,0.0,-999.0,58,0.00,,,0.00,open2300 v1.10,2013-12-07 15:21:00,
2013-12-07 07:36:00,44.1,30.2,29.92,North,0,0.0,-999.0,58,0.00,,,0.00,open2300 v1.10,2013-12-07 15:36:00,
2013-12-07 07:51:00,44.2,30.4,29.93,North,0,0.0,-999.0,58,0.00,,,0.00,open2300 v1.10,2013-12-07 15:51:00,
2013-12-07 08:06:00,44.2,29.9,29.94,North,0,0.0,-999.0,57,0.00,,,0.00,open2300 v1.10,2013-12-07 16:06:00,
2013-12-07 08:21:00,44.4,29.7,29.95,North,0,0.0,-999.0,56,0.00,,,0.00,open2300 v1.10,2013-12-07 16:21:00,
2013-12-07 08:36:00,44.4,29.7,29.95,North,0,0.0,-999.0,56,0.00,,,0.00,open2300 v1.10,2013-12-07 16:36:00,
2013-12-07 08:51:00,44.8,30.0,29.96,North,0,0.0,-999.0,56,0.00,,,0.00,open2300 v1.10,2013-12-07 16:51:00,
2013-12-07 09:06:00,45.1,29.9,29.97,North,0,0.0,-999.0,55,0.00,,,0.00,open2300 v1.10,2013-12-07 17:06:00,
2013-12-07 09:21:00,45.1,29.4,29.97,North,0,0.0,-999.0,54,0.00,,,0.00,open2300 v1.10,2013-12-07 17:21:00,
2013-12-07 09:36:00,45.3,29.6,29.97,North,0,0.0,-999.0,54,0.00,,,0.00,open2300 v1.10,2013-12-07 17:36:00,
2013-12-07 09:51:00,45.5,30.2,29.98,North,0,0.0,-999.0,55,0.00,,,0.00,open2300 v1.10,2013-12-07 17:51:00,
2013-12-07 10:06:00,45.5,30.2,29.98,North,0,0.0,-999.0,55,0.00,,,0.00,open2300 v1.10,2013-12-07 18:06:00,
2013-12-07 10:21:00,45.7,29.9,29.99,North,0,0.0,-999.0,54,0.00,,,0.00,open2300 v1.10,2013-12-07 18:21:00,
2013-12-07 10:36:00,46.0,27.4,29.99,North,0,0.0,-999.0,48,0.00,,,0.00,open2300 v1.10,2013-12-07 18:36:00,
2013-12-07 10:51:00,46.0,27.9,29.99,North,0,0.0,-999.0,49,0.00,,,0.00,open2300 v1.10,2013-12-07 18:51:00,
2013-12-07 11:06:00,46.2,27.0,29.99,North,0,0.0,-999.0,47,0.00,,,0.00,open2300 v1.10,2013-12-07 19:06:00,
2013-12-07 11:21:00,46.2,27.0,29.98,North,0,0.0,-999.0,47,0.00,,,0.00,open2300 v1.10,2013-12-07 19:21:00,
2013-12-07 11:36:00,46.6,26.8,29.98,North,0,0.0,-999.0,46,0.00,,,0.00,open2300 v1.10,2013-12-07 19:36:00,
2013-12-07 11:51:00,46.6,25.1,29.97,North,0,0.0,-999.0,43,0.00,,,0.00,open2300 v1.10,2013-12-07 19:51:00,
2013-12-07 12:06:00,46.6,25.1,29.98,North,0,0.0,-999.0,43,0.00,,,0.00,open2300 v1.10,2013-12-07 20:06:00,
2013-12-07 12:21:00,46.8,25.3,29.96,North,0,0.0,-999.0,43,0.00,,,0.00,open2300 v1.10,2013-12-07 20:21:00,
2013-12-07 12:36:00,46.6,25.1,29.96,North,0,0.0,-999.0,43,0.00,,,0.00,open2300 v1.10,2013-12-07 20:36:00,
2013-12-07 12:51:00,46.6,25.7,29.96,North,0,0.0,-999.0,44,0.00,,,0.00,open2300 v1.10,2013-12-07 20:51:00,
2013-12-07 13:06:00,47.5,27.0,29.95,North,0,0.0,-999.0,45,0.00,,,0.00,open2300 v1.10,2013-12-07 21:06:00,
2013-12-07 13:21:00,48.4,27.3,29.96,North,0,0.0,-999.0,44,0.00,,,0.00,open2300 v1.10,2013-12-07 21:21:00,
2013-12-07 13:36:00,48.4,28.9,29.96,North,0,0.0,-999.0,47,0.00,,,0.00,open2300 v1.10,2013-12-07 21:36:00,
2013-12-07 13:51:00,48.0,29.1,29.96,North,0,0.0,-999.0,48,0.00,,,0.00,open2300 v1.10,2013-12-07 21:51:00,
2013-12-07 14:06:00,48.2,29.3,29.96,North,0,0.0,-999.0,48,0.00,,,0.00,open2300 v1.10,2013-12-07 22:06:00,
2013-12-07 14:21:00,48.2,26.6,29.96,North,0,0.0,-999.0,43,0.00,,,0.00,open2300 v1.10,2013-12-07 22:21:00,
2013-12-07 14:36:00,48.0,25.9,29.97,North,0,0.0,-999.0,42,0.00,,,0.00,open2300 v1.10,2013-12-07 22:36:00,
2013-12-07 14:51:00,47.5,25.4,29.97,North,0,0.0,-999.0,42,0.00,,,0.00,open2300 v1.10,2013-12-07 22:51:00,
2013-12-07 15:06:00,47.8,26.3,29.99,North,0,0.0,-999.0,43,0.00,,,0.00,open2300 v1.10,2013-12-07 23:06:00,
2013-12-07 15:21:00,47.3,25.2,30.00,North,0,0.0,-999.0,42,0.00,,,0.00,open2300 v1.10,2013-12-07 23:21:00,
2013-12-07 15:36:00,47.3,25.8,30.01,North,0,0.0,-999.0,43,0.00,,,0.00,open2300 v1.10,2013-12-07 23:36:00,
2013-12-07 15:51:00,47.1,26.2,30.01,North,0,0.0,-999.0,44,0.00,,,0.00,open2300 v1.10,2013-12-07 23:51:00,
2013-12-07 16:06:00,46.9,26.0,30.02,North,0,0.0,-999.0,44,0.00,,,0.00,open2300 v1.10,2013-12-08 00:06:00,
2013-12-07 16:21:00,46.2,26.4,30.02,North,0,0.0,-999.0,46,0.00,,,0.00,open2300 v1.10,2013-12-08 00:21:00,
2013-12-07 16:36:00,46.0,27.4,30.02,North,0,0.0,-999.0,48,0.00,,,0.00,open2300 v1.10,2013-12-08 00:36:00,
2013-12-07 16:51:00,45.3,27.2,30.03,North,0,0.0,-999.0,49,0.00,,,0.00,open2300 v1.10,2013-12-08 00:51:00,
2013-12-07 17:06:00,45.0,26.9,30.04,North,0,0.0,-999.0,49,0.00,,,0.00,open2300 v1.10,2013-12-08 01:06:00,
2013-12-07 17:21:00,44.6,27.1,30.05,North,0,0.0,-999.0,50,0.00,,,0.00,open2300 v1.10,2013-12-08 01:21:00,
2013-12-07 17:36:00,44.4,27.4,30.04,North,0,0.0,-999.0,51,0.00,,,0.00,open2300 v1.10,2013-12-08 01:36:00,
2013-12-07 17:51:00,44.2,27.2,30.04,North,0,0.0,-999.0,51,0.00,,,0.00,open2300 v1.10,2013-12-08 01:51:00,
2013-12-07 18:06:00,43.9,26.9,30.05,North,0,0.0,-999.0,51,0.00,,,0.00,open2300 v1.10,2013-12-08 02:06:00,
2013-12-07 18:21:00,43.7,26.3,30.05,North,0,0.0,-999.0,50,0.00,,,0.00,open2300 v1.10,2013-12-08 02:21:00,
2013-12-07 18:36:00,43.7,26.8,30.05,North,0,0.0,-999.0,51,0.00,,,0.00,open2300 v1.10,2013-12-08 02:36:00,
2013-12-07 18:51:00,43.7,26.8,30.05,North,0,0.0,-999.0,51,0.00,,,0.00,open2300 v1.10,2013-12-08 02:51:00,
2013-12-07 19:06:00,43.5,27.0,30.05,North,0,0.0,-999.0,52,0.00,,,0.00,open2300 v1.10,2013-12-08 03:06:00,
2013-12-07 19:21:00,43.5,27.0,30.06,North,0,0.0,-999.0,52,0.00,,,0.00,open2300 v1.10,2013-12-08 03:21:00,
2013-12-07 19:36:00,43.5,27.0,30.06,North,0,0.0,-999.0,52,0.00,,,0.00,open2300 v1.10,2013-12-08 03:36:00,
2013-12-07 19:51:00,43.5,27.0,30.06,North,0,0.0,-999.0,52,0.00,,,0.00,open2300 v1.10,2013-12-08 03:51:00,
2013-12-07 20:06:00,43.5,27.0,30.06,North,0,0.0,-999.0,52,0.00,,,0.00,open2300 v1.10,2013-12-08 04:06:00,
2013-12-07 20:21:00,43.3,26.9,30.06,North,0,0.0,-999.0,52,0.00,,,0.00,open2300 v1.10,2013-12-08 04:21:00,
2013-12-07 20:36:00,42.8,28.1,30.07,North,0,0.0,-999.0,56,0.00,,,0.00,open2300 v1.10,2013-12-08 04:36:00,
2013-12-07 20:51:00,42.6,28.8,30.06,North,0,0.0,-999.0,58,0.00,,,0.00,open2300 v1.10,2013-12-08 04:51:00,
2013-12-07 21:06:00,42.4,28.2,30.07,North,0,0.0,-999.0,57,0.00,,,0.00,open2300 v1.10,2013-12-08 05:06:00,
2013-12-07 21:21:00,42.4,28.6,30.07,North,0,0.0,-999.0,58,0.00,,,0.00,open2300 v1.10,2013-12-08 05:21:00,
2013-12-07 21:36:00,42.3,28.5,30.08,North,0,0.0,-999.0,58,0.00,,,0.00,open2300 v1.10,2013-12-08 05:36:00,
2013-12-07 21:51:00,42.1,29.2,30.08,North,0,0.0,-999.0,60,0.00,,,0.00,open2300 v1.10,2013-12-08 05:51:00,
2013-12-07 22:06:00,42.1,29.2,30.08,North,0,0.0,-999.0,60,0.00,,,0.00,open2300 v1.10,2013-12-08 06:06:00,
2013-12-07 22:21:00,42.4,29.9,30.10,North,0,0.0,-999.0,61,0.00,,,0.00,open2300 v1.10,2013-12-08 06:21:00,
2013-12-07 22:36:00,42.4,30.3,30.10,North,0,0.0,-999.0,62,0.00,,,0.00,open2300 v1.10,2013-12-08 06:36:00,
2013-12-07 22:51:00,42.4,30.7,30.10,North,0,0.0,-999.0,63,0.00,,,0.00,open2300 v1.10,2013-12-08 06:51:00,
2013-12-07 23:06:00,42.1,30.7,30.11,North,0,0.0,-999.0,64,0.00,,,0.00,open2300 v1.10,2013-12-08 07:06:00,
2013-12-07 23:21:00,42.1,31.1,30.11,North,0,0.0,-999.0,65,0.00,,,0.00,open2300 v1.10,2013-12-08 07:21:00,
2013-12-07 23:36:00,42.1,31.5,30.12,North,0,0.0,-999.0,66,0.00,,,0.00,open2300 v1.10,2013-12-08 07:36:00,
2013-12-07 23:51:00,41.9,31.4,30.12,North,0,0.0,-999.0,66,0.00,,,0.00,open2300 v1.10,2013-12-08 07:51:00,